Huvudsida
METAR-TAF:

METAR-TAF

Flygplatser :

Vidsels flygplats

Vidsel, Sverige

latitud: 65-52N, longitud: 020-08E, höjd: 180 m

Aktuellt väderrapport

Denna rapport gjordes för 13 minuter sedan, klockan 13:50 UTC
Vind 6 kt från sydost
Temperatur 12°C
Fuktighet 94%
Tryck 989 hPa
Sikt 10 km eller mer
lätt regn

METAR: ESPE 191350Z AUTO 13006KT 9999 -RA FEW011/// SCT026/// BKN034/// OVC047/// 12/11 Q0989 RERA

Tid: 16:03 (14:03 UTC)

Väderprognos

Denna rapport gjordes för 2 timmar och 33 minuter sedan, klockan 11:30 UTC
Prognos gäller från 19 kl. 12 UTC till 19 kl. 14 UTC
Vind 5 kt från ost/sydost
Sikt 10 km eller mer
Brutna moln på en höjd av 500 ft
lätt regn
Temporärt
från 19 kl. 12 UTC till 19 kl. 14 UTC
Sikt: 3000 m
Spridda moln på en höjd av 500 ft
Brutna moln på en höjd av 2000 ft, Cumulonimbus.
regnskurar
Sannolikhet 30%
från 19 kl. 12 UTC till 19 kl. 14 UTC
åska

TAF: ESPE 191130Z 1912/1914 11005KT 9999 -RA BKN005 TEMPO 1912/1914 3000 SHRA SCT005 BKN020CB PROB30 1912/1914 TS RMK MIL

Aktuella väderrapporter och prognoser från 4000 flygplatser (METAR- och TAF-rapporter).

De tillgängliga stationerna syns som gula och röda prickar på kartan.

För musen över prickarna för att se namnen på stationerna.

Klicka sedan för att få väderrapporter och prognoser.

För att ändra kartan: Klicka på de gröna knapparna med ett svart kors på för att zooma in; den gröna knappen med ett streck på för att zooma ut; eller på de gröna pilarna för angränsande kartor.


METAR-TAF: